createdAt,value
2023-02-07T00:01:30.525Z,37.00
2023-02-07T00:03:58.810Z,32.60
2023-02-07T00:06:33.625Z,31.10
2023-02-07T00:09:02.445Z,32.30
2023-02-07T00:11:29.538Z,34.20
2023-02-07T00:13:58.819Z,31.98
2023-02-07T00:17:05.254Z,33.55
2023-02-07T00:19:32.224Z,30.45
2023-02-07T00:21:59.680Z,29.10
2023-02-07T00:24:26.415Z,31.77
2023-02-07T00:26:53.183Z,30.25
2023-02-07T00:29:20.001Z,32.70
2023-02-07T00:31:46.975Z,30.90
2023-02-07T00:34:28.951Z,30.00
2023-02-07T00:36:59.230Z,27.58
2023-02-07T00:39:27.247Z,28.27
2023-02-07T00:41:54.651Z,27.67
2023-02-07T00:44:21.565Z,27.13
2023-02-07T00:46:48.394Z,26.92
2023-02-07T00:49:15.379Z,26.60
2023-02-07T00:51:42.095Z,28.52
2023-02-07T00:54:09.021Z,27.95
2023-02-07T00:56:36.468Z,27.02
2023-02-07T00:59:03.382Z,31.33
2023-02-07T01:01:30.674Z,28.05
2023-02-07T01:03:57.851Z,26.33
2023-02-07T01:06:24.932Z,27.25
2023-02-07T01:08:57.941Z,31.30
2023-02-07T01:11:24.726Z,29.65
2023-02-07T01:13:51.678Z,29.23
2023-02-07T01:16:29.847Z,28.63
2023-02-07T01:18:57.633Z,28.90
2023-02-07T01:21:27.342Z,30.25
2023-02-07T01:23:57.689Z,28.73
2023-02-07T01:26:26.575Z,29.30
2023-02-07T01:28:55.559Z,27.95
2023-02-07T01:31:23.743Z,29.58
2023-02-07T01:33:56.061Z,27.70
2023-02-07T01:36:26.668Z,27.45
2023-02-07T01:38:54.616Z,27.10
2023-02-07T01:41:23.894Z,27.27
2023-02-07T01:43:54.771Z,27.55
2023-02-07T01:46:21.738Z,23.90
2023-02-07T01:48:49.130Z,28.42
2023-02-07T01:51:16.661Z,28.35
2023-02-07T01:53:43.639Z,28.33
2023-02-07T01:56:20.154Z,27.48
2023-02-07T02:01:26.009Z,27.23
2023-02-07T02:03:56.120Z,28.00
2023-02-07T02:06:26.523Z,25.58
2023-02-07T02:08:58.597Z,28.65
2023-02-07T02:12:14.943Z,27.63
2023-02-07T02:15:23.318Z,25.85
2023-02-07T02:18:23.534Z,27.50
2023-02-07T02:21:52.018Z,28.88
2023-02-07T02:24:58.657Z,27.02
2023-02-07T02:27:44.194Z,24.88
2023-02-07T02:30:47.809Z,29.17
2023-02-07T02:33:58.064Z,28.17
2023-02-07T02:37:03.400Z,26.92
2023-02-07T02:39:42.361Z,26.88
2023-02-07T02:42:35.946Z,27.52
2023-02-07T02:45:16.794Z,26.63
2023-02-07T02:47:47.523Z,30.02
2023-02-07T02:50:23.075Z,26.23
2023-02-07T02:52:51.328Z,26.27
2023-02-07T02:55:38.462Z,25.55
2023-02-07T02:59:02.535Z,26.63
2023-02-07T03:01:43.615Z,28.85
2023-02-07T03:04:35.039Z,27.23
2023-02-07T03:07:23.437Z,29.55
2023-02-07T03:10:11.014Z,28.17
2023-02-07T03:12:53.884Z,27.85
2023-02-07T03:15:44.609Z,30.88
2023-02-07T03:18:48.869Z,25.92
2023-02-07T03:21:30.691Z,26.73
2023-02-07T03:24:01.834Z,28.17
2023-02-07T03:26:30.966Z,26.88
2023-02-07T03:28:59.769Z,27.40
2023-02-07T03:31:29.164Z,28.88
2023-02-07T03:34:04.615Z,27.38
2023-02-07T03:36:55.004Z,27.80
2023-02-07T03:39:21.904Z,28.00
2023-02-07T03:42:06.303Z,27.27
2023-02-07T03:44:36.259Z,28.65
2023-02-07T03:47:04.466Z,28.35
2023-02-07T03:49:31.348Z,26.88
2023-02-07T03:51:58.403Z,27.20
2023-02-07T03:54:25.200Z,28.35
2023-02-07T03:56:51.893Z,28.98
2023-02-07T03:59:18.622Z,26.20
2023-02-07T04:01:45.421Z,28.77
2023-02-07T04:04:12.652Z,26.63
2023-02-07T04:06:39.460Z,29.75
2023-02-07T04:09:06.297Z,26.63
2023-02-07T04:12:47.445Z,26.90
2023-02-07T04:15:14.918Z,28.23
2023-02-07T04:17:41.781Z,26.48
2023-02-07T04:20:10.503Z,23.67
2023-02-07T04:22:37.350Z,28.92
2023-02-07T04:25:05.451Z,25.83
2023-02-07T04:27:32.152Z,29.98
2023-02-07T04:29:58.827Z,26.63
2023-02-07T04:32:25.617Z,28.17
2023-02-07T04:34:52.370Z,27.08
2023-02-07T04:37:49.816Z,22.80
2023-02-07T04:40:19.514Z,28.00
2023-02-07T04:42:46.466Z,25.75
2023-02-07T04:45:13.152Z,26.42
2023-02-07T04:47:39.911Z,25.75
2023-02-07T04:50:06.989Z,25.80
2023-02-07T04:52:33.709Z,26.73
2023-02-07T04:55:00.396Z,27.98
2023-02-07T04:57:27.058Z,24.85
2023-02-07T04:59:54.502Z,26.33
2023-02-07T05:02:21.463Z,23.67
2023-02-07T05:04:48.221Z,26.30
2023-02-07T05:07:15.852Z,30.05
2023-02-07T05:09:42.806Z,27.42
2023-02-07T05:12:10.902Z,22.42
2023-02-07T05:14:37.867Z,26.35
2023-02-07T05:17:07.603Z,25.17
2023-02-07T05:19:35.116Z,26.63
2023-02-07T05:22:22.253Z,23.10
2023-02-07T05:24:49.539Z,26.92
2023-02-07T05:27:17.786Z,24.30
2023-02-07T05:29:51.096Z,26.00
2023-02-07T05:32:38.207Z,26.45
2023-02-07T05:35:07.738Z,29.05
2023-02-07T05:37:36.179Z,24.27
2023-02-07T05:40:14.941Z,28.02
2023-02-07T05:42:41.980Z,28.30
2023-02-07T05:45:09.095Z,25.58
2023-02-07T05:47:36.177Z,25.38
2023-02-07T05:50:03.999Z,25.70
2023-02-07T05:52:34.714Z,25.52
2023-02-07T05:55:02.407Z,25.85
2023-02-07T05:57:29.264Z,24.98
2023-02-07T05:59:56.012Z,24.85
2023-02-07T06:02:23.362Z,23.85
2023-02-07T06:04:50.286Z,24.65
2023-02-07T06:07:17.032Z,23.98
2023-02-07T06:09:43.867Z,23.73
2023-02-07T06:12:10.803Z,24.95
2023-02-07T06:14:37.667Z,26.05
2023-02-07T06:17:04.509Z,29.20
2023-02-07T06:19:31.336Z,25.48
2023-02-07T06:21:58.442Z,23.45
2023-02-07T06:24:25.326Z,24.92
2023-02-07T06:26:52.153Z,25.30
2023-02-07T06:29:20.053Z,24.65
2023-02-07T06:31:47.046Z,23.42
2023-02-07T06:34:13.917Z,22.45
2023-02-07T06:36:40.660Z,23.75
2023-02-07T06:39:07.707Z,24.40
2023-02-07T06:41:34.564Z,26.95
2023-02-07T06:44:01.462Z,26.25
2023-02-07T06:46:28.700Z,23.95
2023-02-07T06:48:55.934Z,25.60
2023-02-07T06:51:23.465Z,25.95
2023-02-07T06:53:50.428Z,26.55
2023-02-07T06:56:18.697Z,27.38
2023-02-07T06:58:46.093Z,27.20
2023-02-07T07:01:12.910Z,24.83
2023-02-07T07:03:39.857Z,26.90
2023-02-07T07:06:06.753Z,25.15
2023-02-07T07:08:33.520Z,27.67
2023-02-07T07:11:00.569Z,23.85
2023-02-07T07:13:27.500Z,25.33
2023-02-07T07:15:54.374Z,24.90
2023-02-07T07:18:21.264Z,24.65
2023-02-07T07:20:54.211Z,25.50
2023-02-07T07:23:22.072Z,22.40
2023-02-07T07:25:48.873Z,23.55
2023-02-07T07:28:15.632Z,23.60
2023-02-07T07:30:43.478Z,26.45
2023-02-07T07:33:10.591Z,24.33
2023-02-07T07:35:37.797Z,26.23
2023-02-07T07:38:04.864Z,22.45
2023-02-07T07:40:31.865Z,24.38
2023-02-07T07:42:59.024Z,22.30
2023-02-07T07:45:38.628Z,25.88
2023-02-07T07:48:05.671Z,22.75
2023-02-07T07:50:32.501Z,26.00
2023-02-07T07:52:59.322Z,22.92
2023-02-07T07:55:26.248Z,26.52
2023-02-07T07:57:53.765Z,23.05
2023-02-07T08:00:20.955Z,25.95
2023-02-07T08:02:47.637Z,24.10
2023-02-07T08:07:41.286Z,22.08
2023-02-07T08:10:08.317Z,24.17
2023-02-07T08:12:35.322Z,23.85
2023-02-07T08:15:02.214Z,26.58
2023-02-07T08:17:29.054Z,23.67
2023-02-07T08:19:55.783Z,25.08
2023-02-07T08:22:22.576Z,24.27
2023-02-07T08:24:49.299Z,25.92
2023-02-07T08:27:16.576Z,24.98
2023-02-07T08:29:43.453Z,23.85
2023-02-07T08:32:10.350Z,24.63
2023-02-07T08:34:37.735Z,25.00
2023-02-07T08:37:07.577Z,23.40
2023-02-07T08:39:35.840Z,23.10
2023-02-07T08:42:05.479Z,23.05
2023-02-07T08:44:32.515Z,24.25
2023-02-07T08:46:59.358Z,25.25
2023-02-07T08:49:26.850Z,22.08
2023-02-07T08:51:53.616Z,23.98
2023-02-07T08:54:20.582Z,23.30
2023-02-07T08:56:48.363Z,24.58
2023-02-07T08:59:15.178Z,23.35
2023-02-07T09:01:42.291Z,25.67
2023-02-07T09:04:11.369Z,23.33
2023-02-07T09:06:38.794Z,23.73
2023-02-07T09:09:06.777Z,23.23
2023-02-07T09:11:33.798Z,23.92
2023-02-07T09:14:01.816Z,25.35
2023-02-07T09:16:29.089Z,24.65
2023-02-07T09:18:56.775Z,25.88
2023-02-07T09:21:23.865Z,24.80
2023-02-07T09:23:50.678Z,24.77
2023-02-07T09:26:21.612Z,23.63
2023-02-07T09:28:49.022Z,23.08
2023-02-07T09:31:16.486Z,24.02
2023-02-07T09:33:43.751Z,24.05
2023-02-07T09:36:24.154Z,25.98
2023-02-07T09:38:52.377Z,24.92
2023-02-07T09:41:53.581Z,26.25
2023-02-07T09:44:46.684Z,22.98
2023-02-07T09:47:43.160Z,25.65
2023-02-07T09:50:15.012Z,24.55
2023-02-07T09:52:55.271Z,26.33
2023-02-07T09:55:32.618Z,26.90
2023-02-07T09:58:30.671Z,25.45
2023-02-07T10:01:09.336Z,24.42
2023-02-07T10:03:45.697Z,25.00
2023-02-07T10:06:20.663Z,26.52
2023-02-07T10:08:55.177Z,24.77
2023-02-07T10:11:42.689Z,26.10
2023-02-07T10:14:51.697Z,23.52
2023-02-07T10:17:48.279Z,24.80
2023-02-07T10:20:27.159Z,25.25
2023-02-07T10:23:34.143Z,25.08
2023-02-07T10:26:12.490Z,26.30
2023-02-07T10:29:26.068Z,24.70
2023-02-07T10:31:56.428Z,25.15
2023-02-07T10:34:28.768Z,23.33
2023-02-07T10:36:58.822Z,24.58
2023-02-07T10:39:45.570Z,26.40
2023-02-07T10:42:17.126Z,26.15
2023-02-07T10:44:44.411Z,25.17
2023-02-07T10:47:17.750Z,24.50
2023-02-07T10:49:51.818Z,25.80
2023-02-07T10:52:44.749Z,25.17
2023-02-07T10:55:14.295Z,25.67
2023-02-07T10:57:45.920Z,25.58
2023-02-07T11:00:31.594Z,26.33
2023-02-07T11:03:06.990Z,23.02
2023-02-07T11:05:38.081Z,23.67
2023-02-07T11:08:14.451Z,23.65
2023-02-07T11:10:44.340Z,24.85
2023-02-07T11:13:24.690Z,25.50
2023-02-07T11:16:04.605Z,27.73
2023-02-07T11:18:31.446Z,23.90
2023-02-07T11:20:58.257Z,24.23
2023-02-07T11:23:25.629Z,23.80
2023-02-07T11:25:56.018Z,25.25
2023-02-07T11:28:27.731Z,24.63
2023-02-07T11:31:07.333Z,23.98
2023-02-07T11:33:36.532Z,26.35
2023-02-07T11:36:23.799Z,23.45
2023-02-07T11:38:57.246Z,23.63
2023-02-07T11:41:31.004Z,24.92
2023-02-07T11:44:16.985Z,25.05
2023-02-07T11:46:48.546Z,23.58
2023-02-07T11:49:30.970Z,24.70
2023-02-07T11:52:00.606Z,23.13
2023-02-07T11:54:32.403Z,23.90
2023-02-07T11:57:06.326Z,24.65
2023-02-07T11:59:34.152Z,24.08
2023-02-07T12:02:17.725Z,22.92
2023-02-07T12:04:45.065Z,24.45
2023-02-07T12:07:36.277Z,23.65
2023-02-07T12:10:16.372Z,23.58
2023-02-07T12:13:01.457Z,24.38
2023-02-07T12:15:52.652Z,26.58
2023-02-07T12:18:28.993Z,25.30
2023-02-07T12:21:04.539Z,24.65
2023-02-07T12:23:43.266Z,24.30
2023-02-07T12:26:43.285Z,24.70
2023-02-07T12:29:46.020Z,26.33
2023-02-07T12:32:44.008Z,24.48
2023-02-07T12:35:36.488Z,23.73
2023-02-07T12:38:42.523Z,25.42
2023-02-07T12:43:56.796Z,24.88
2023-02-07T12:46:41.963Z,25.20
2023-02-07T12:49:37.549Z,25.70
2023-02-07T12:52:32.320Z,24.25
2023-02-07T12:55:22.638Z,24.08
2023-02-07T12:58:23.134Z,23.88
2023-02-07T13:01:24.895Z,24.92
2023-02-07T13:04:06.121Z,27.52
2023-02-07T13:06:45.917Z,24.05
2023-02-07T13:09:30.974Z,27.23
2023-02-07T13:12:21.739Z,25.48
2023-02-07T13:14:58.177Z,25.58
2023-02-07T13:18:08.438Z,25.23
2023-02-07T13:21:02.322Z,24.77
2023-02-07T13:23:33.522Z,25.08
2023-02-07T13:26:11.463Z,25.67
2023-02-07T13:28:57.161Z,25.80
2023-02-07T13:31:49.043Z,25.00
2023-02-07T13:34:21.186Z,26.52
2023-02-07T13:36:50.224Z,25.67
2023-02-07T13:39:42.604Z,27.02
2023-02-07T13:42:43.502Z,26.20
2023-02-07T13:45:56.397Z,26.17
2023-02-07T13:48:35.669Z,25.77
2023-02-07T13:51:05.089Z,25.83
2023-02-07T13:57:58.324Z,23.17
2023-02-07T14:00:31.109Z,24.27
2023-02-07T14:03:04.447Z,25.90
2023-02-07T14:05:40.190Z,23.23
2023-02-07T14:08:24.824Z,23.23
2023-02-07T14:10:58.936Z,22.90
2023-02-07T14:13:37.925Z,23.90
2023-02-07T14:16:11.704Z,25.98
2023-02-07T14:18:48.775Z,25.15
2023-02-07T14:21:31.588Z,26.52
2023-02-07T14:24:01.440Z,25.35
2023-02-07T14:26:40.631Z,23.25
2023-02-07T14:29:26.937Z,25.23
2023-02-07T14:32:25.481Z,26.80
2023-02-07T14:35:19.503Z,23.20
2023-02-07T14:37:53.985Z,26.08
2023-02-07T14:40:47.923Z,25.63
2023-02-07T14:43:15.144Z,25.63
2023-02-07T14:46:18.076Z,25.45
2023-02-07T14:48:59.570Z,25.55
2023-02-07T14:51:29.351Z,23.77
2023-02-07T14:54:08.209Z,25.10
2023-02-07T14:56:46.749Z,24.77
2023-02-07T14:59:34.498Z,25.60
2023-02-07T15:02:41.040Z,23.08
2023-02-07T15:05:26.155Z,23.85
2023-02-07T15:08:11.236Z,26.63
2023-02-07T15:10:45.829Z,24.25
2023-02-07T15:13:42.507Z,27.93
2023-02-07T15:16:14.667Z,24.85
2023-02-07T15:18:58.602Z,25.83
2023-02-07T15:21:46.256Z,25.60
2023-02-07T15:24:28.510Z,24.20
2023-02-07T15:27:01.276Z,24.80
2023-02-07T15:29:37.807Z,24.83
2023-02-07T15:32:23.580Z,23.73
2023-02-07T15:34:50.309Z,23.60
2023-02-07T15:37:23.050Z,23.45
2023-02-07T15:39:55.219Z,24.25
2023-02-07T15:42:22.723Z,24.25
2023-02-07T15:44:53.647Z,22.38
2023-02-07T15:47:39.322Z,21.70
2023-02-07T15:50:23.896Z,24.50
2023-02-07T15:52:55.343Z,25.93
2023-02-07T15:55:34.554Z,23.25
2023-02-07T15:58:05.820Z,24.60
2023-02-07T16:00:41.066Z,26.38
2023-02-07T16:03:18.682Z,23.27
2023-02-07T16:05:45.762Z,24.33
2023-02-07T16:08:36.186Z,25.25
2023-02-07T16:11:27.883Z,26.83
2023-02-07T16:14:25.579Z,23.85
2023-02-07T16:16:55.873Z,24.48
2023-02-07T16:19:28.472Z,24.23
2023-02-07T16:22:07.036Z,25.45
2023-02-07T16:24:38.261Z,24.65
2023-02-07T16:27:06.488Z,24.38
2023-02-07T16:29:36.286Z,25.10
2023-02-07T16:32:04.489Z,24.52
2023-02-07T16:34:31.317Z,25.65
2023-02-07T16:36:58.036Z,25.05
2023-02-07T16:39:24.790Z,26.00
2023-02-07T16:41:56.947Z,23.27
2023-02-07T16:44:26.114Z,22.45
2023-02-07T16:46:53.293Z,26.00
2023-02-07T16:49:23.679Z,24.85
2023-02-07T16:51:50.596Z,24.23
2023-02-07T16:54:17.403Z,24.90
2023-02-07T16:56:46.393Z,23.33
2023-02-07T16:59:23.318Z,25.15
2023-02-07T17:01:52.917Z,24.45
2023-02-07T17:04:20.078Z,26.90
2023-02-07T17:06:47.816Z,25.10
2023-02-07T17:09:25.118Z,25.90
2023-02-07T17:11:53.753Z,23.98
2023-02-07T17:14:21.002Z,24.25
2023-02-07T17:16:48.189Z,26.33
2023-02-07T17:19:24.066Z,27.95
2023-02-07T17:21:52.382Z,26.73
2023-02-07T17:24:19.702Z,25.58
2023-02-07T17:26:50.503Z,24.30
2023-02-07T17:29:19.154Z,24.92
2023-02-07T17:31:46.916Z,27.45
2023-02-07T17:34:13.758Z,28.00
2023-02-07T17:36:46.275Z,29.95
2023-02-07T17:39:15.440Z,31.35
2023-02-07T17:41:42.412Z,27.83
2023-02-07T17:44:09.318Z,29.85
2023-02-07T17:46:36.685Z,29.63
2023-02-07T17:49:04.020Z,31.08
2023-02-07T17:51:30.835Z,29.23
2023-02-07T17:53:57.758Z,31.38
2023-02-07T17:56:30.889Z,27.23
2023-02-07T17:59:02.307Z,27.52
2023-02-07T18:01:30.699Z,29.05
2023-02-07T18:03:58.536Z,31.45
2023-02-07T18:06:28.910Z,28.45
2023-02-07T18:08:58.748Z,28.90
2023-02-07T18:11:34.941Z,26.08
2023-02-07T18:16:29.650Z,28.52
2023-02-07T18:18:57.961Z,28.60
2023-02-07T18:21:25.895Z,28.85
2023-02-07T18:23:53.455Z,27.88
2023-02-07T18:26:21.566Z,31.33
2023-02-07T18:28:49.640Z,28.65
2023-02-07T18:31:24.104Z,30.52
2023-02-07T18:33:53.008Z,28.65
2023-02-07T18:36:22.308Z,29.80
2023-02-07T18:38:49.542Z,28.05
2023-02-07T18:41:21.910Z,29.90
2023-02-07T18:43:50.447Z,30.80
2023-02-07T18:46:20.453Z,29.13
2023-02-07T18:48:51.138Z,29.95
2023-02-07T18:51:19.495Z,30.63
2023-02-07T18:53:50.450Z,29.75
2023-02-07T18:56:22.168Z,30.52
2023-02-07T18:58:52.986Z,31.50
2023-02-07T19:01:21.003Z,31.27
2023-02-07T19:03:58.205Z,29.25
2023-02-07T19:06:29.191Z,31.90
2023-02-07T19:08:56.692Z,30.08
2023-02-07T19:11:24.039Z,31.02
2023-02-07T19:13:50.794Z,34.80
2023-02-07T19:16:22.119Z,31.23
2023-02-07T19:18:50.841Z,32.20
2023-02-07T19:21:27.411Z,33.47
2023-02-07T19:23:57.058Z,31.17
2023-02-07T19:26:25.254Z,35.03
2023-02-07T19:28:53.043Z,31.48
2023-02-07T19:31:21.018Z,34.10
2023-02-07T19:33:49.481Z,32.83
2023-02-07T19:36:18.528Z,29.48
2023-02-07T19:38:48.452Z,32.53
2023-02-07T19:41:17.194Z,34.92
2023-02-07T19:43:45.739Z,31.77
2023-02-07T19:46:12.602Z,34.45
2023-02-07T19:48:39.346Z,31.52
2023-02-07T19:51:11.785Z,32.22
2023-02-07T19:53:38.635Z,32.47
2023-02-07T19:56:11.448Z,31.75
2023-02-07T19:58:45.648Z,30.08
2023-02-07T20:01:13.263Z,30.30
2023-02-07T20:03:41.235Z,31.55
2023-02-07T20:06:13.798Z,30.80
2023-02-07T20:08:41.542Z,32.72
2023-02-07T20:11:13.242Z,37.63
2023-02-07T20:13:45.845Z,34.70
2023-02-07T20:16:17.023Z,32.95
2023-02-07T20:18:44.806Z,32.33
2023-02-07T20:21:16.369Z,33.40
2023-02-07T20:23:46.644Z,35.40
2023-02-07T20:26:21.588Z,36.28
2023-02-07T20:28:50.047Z,37.53
2023-02-07T20:31:21.420Z,34.65
2023-02-07T20:33:48.497Z,30.67
2023-02-07T20:36:17.894Z,32.78
2023-02-07T20:38:46.093Z,30.80
2023-02-07T20:41:29.378Z,32.42
2023-02-07T20:44:11.132Z,30.75
2023-02-07T20:46:38.846Z,29.80
2023-02-07T20:49:19.723Z,28.70
2023-02-07T20:51:49.295Z,29.75
2023-02-07T20:54:18.841Z,31.00
2023-02-07T20:56:45.752Z,31.20
2023-02-07T20:59:22.290Z,29.25
2023-02-07T21:01:49.440Z,30.50
2023-02-07T21:04:17.350Z,30.58
2023-02-07T21:06:44.956Z,30.83
2023-02-07T21:09:13.670Z,30.45
2023-02-07T21:11:45.782Z,30.55
2023-02-07T21:14:22.839Z,34.20
2023-02-07T21:16:54.623Z,29.65
2023-02-07T21:19:22.632Z,31.08
2023-02-07T21:21:50.939Z,31.33
2023-02-07T21:24:19.096Z,33.28
2023-02-07T21:26:49.284Z,30.13
2023-02-07T21:29:16.221Z,30.67
2023-02-07T21:31:43.514Z,29.83
2023-02-07T21:34:10.642Z,29.48
2023-02-07T21:36:40.414Z,33.92
2023-02-07T21:39:13.889Z,31.08
2023-02-07T21:41:46.903Z,32.67
2023-02-07T21:44:15.113Z,32.17
2023-02-07T21:46:46.423Z,30.98
2023-02-07T21:49:16.854Z,30.15
2023-02-07T21:51:47.028Z,27.80
2023-02-07T21:54:15.390Z,31.27
2023-02-07T21:56:44.216Z,30.33
2023-02-07T21:59:16.756Z,30.08
2023-02-07T22:01:44.832Z,31.02
2023-02-07T22:04:14.725Z,30.40
2023-02-07T22:06:44.309Z,32.47
2023-02-07T22:09:14.494Z,31.42
2023-02-07T22:11:41.750Z,29.88
2023-02-07T22:14:11.598Z,28.77
2023-02-07T22:16:38.828Z,29.13
2023-02-07T22:19:10.877Z,29.20
2023-02-07T22:21:38.241Z,28.10
2023-02-07T22:24:06.853Z,30.92
2023-02-07T22:26:35.146Z,32.08
2023-02-07T22:29:04.677Z,30.70
2023-02-07T22:31:35.854Z,32.28
2023-02-07T22:34:11.516Z,31.35
2023-02-07T22:36:42.971Z,29.77
2023-02-07T22:39:13.831Z,30.10
2023-02-07T22:41:40.864Z,28.52
2023-02-07T22:44:07.985Z,31.88
2023-02-07T22:46:34.924Z,27.40
2023-02-07T22:49:01.796Z,29.48
2023-02-07T22:51:32.720Z,24.90
2023-02-07T22:54:05.707Z,26.10
2023-02-07T22:56:34.609Z,26.33
2023-02-07T22:59:01.596Z,26.10
2023-02-07T23:01:32.712Z,26.42
2023-02-07T23:04:02.213Z,24.75
2023-02-07T23:06:29.554Z,26.52
2023-02-07T23:08:56.626Z,26.10
2023-02-07T23:11:24.675Z,27.67
2023-02-07T23:13:53.171Z,26.27
2023-02-07T23:16:26.511Z,28.13
2023-02-07T23:18:58.556Z,26.25
2023-02-07T23:21:26.891Z,26.63
2023-02-07T23:23:54.311Z,27.02
2023-02-07T23:26:23.872Z,26.30
2023-02-07T23:28:51.954Z,25.77
2023-02-07T23:31:21.746Z,26.77
2023-02-07T23:33:49.294Z,27.13
2023-02-07T23:36:17.816Z,27.77
2023-02-07T23:38:46.903Z,28.23
2023-02-07T23:41:14.698Z,26.27
2023-02-07T23:43:41.955Z,27.58
2023-02-07T23:46:10.802Z,26.42
2023-02-07T23:48:38.815Z,27.85
2023-02-07T23:51:06.895Z,25.52
2023-02-07T23:53:34.913Z,26.65
2023-02-07T23:56:04.047Z,26.67
2023-02-07T23:58:31.938Z,26.58
